Time;durP1;ratioP1;P1;durP2;ratioP2;P2;SDS_P1;SDS_P2;PMS_P1;PMS_P2;Temp;Humidity;BMP_temperature;BMP_pressure;BME280_temperature;BME280_humidity;BME280_pressure;Samples;Min_cycle;Max_cycle;Signal;HPM_P1;HPM_P2
2022/05/02 00:00:16;;;;;;;13.80;12.27;;;20.10;48.80;;;;;;5053580;28;20236;-70
2022/05/02 00:02:43;;;;;;;14.00;11.10;;;20.10;48.10;;;;;;5053272;28;20310;-69
2022/05/02 00:05:10;;;;;;;13.07;11.65;;;20.10;48.10;;;;;;5053192;28;20218;-69
2022/05/02 00:07:37;;;;;;;14.48;12.18;;;20.10;48.20;;;;;;5053618;28;20215;-69
2022/05/02 00:10:06;;;;;;;16.17;11.65;;;20.10;48.30;;;;;;5057358;28;20196;-69
2022/05/02 00:12:33;;;;;;;12.68;11.07;;;20.00;48.10;;;;;;5056964;28;20238;-69
2022/05/02 00:15:01;;;;;;;13.20;10.85;;;20.00;48.10;;;;;;5055844;28;20196;-69
2022/05/02 00:20:10;;;;;;;14.55;11.88;;;20.00;48.20;;;;;;5036261;28;20285;-69
2022/05/02 00:22:37;;;;;;;11.65;10.40;;;19.90;48.10;;;;;;5052933;28;20216;-69
2022/05/02 00:25:05;;;;;;;14.45;11.90;;;19.90;48.30;;;;;;5053729;28;20571;-69
2022/05/02 00:27:32;;;;;;;13.40;11.57;;;19.90;48.30;;;;;;5054385;28;20218;-69
2022/05/02 00:30:00;;;;;;;15.05;10.85;;;19.90;48.30;;;;;;5054258;28;20188;-69
2022/05/02 00:32:28;;;;;;;13.45;10.23;;;19.90;48.40;;;;;;5052822;28;20567;-69
2022/05/02 00:34:55;;;;;;;12.07;10.73;;;19.80;48.30;;;;;;5052767;28;20679;-69
2022/05/02 00:37:22;;;;;;;13.23;11.13;;;19.80;48.40;;;;;;5052580;28;20226;-69
2022/05/02 00:39:49;;;;;;;12.68;10.73;;;19.80;48.30;;;;;;5052645;28;20198;-68
2022/05/02 00:42:18;;;;;;;11.70;10.50;;;19.80;48.50;;;;;;5052735;28;20211;-69
2022/05/02 00:44:45;;;;;;;12.40;10.95;;;19.80;48.50;;;;;;5052507;28;20249;-69
2022/05/02 00:47:15;;;;;;;13.38;11.00;;;19.80;48.50;;;;;;5052459;28;20289;-69
2022/05/02 00:49:42;;;;;;;11.25;10.05;;;19.80;48.50;;;;;;5052136;28;20206;-68
2022/05/02 00:52:09;;;;;;;12.45;10.45;;;19.80;48.50;;;;;;5053917;28;20191;-69
2022/05/02 00:54:37;;;;;;;10.85;9.70;;;19.70;48.50;;;;;;5053601;28;20660;-69
2022/05/02 00:57:05;;;;;;;12.25;10.55;;;19.70;48.40;;;;;;5052301;28;20211;-69
2022/05/02 00:59:33;;;;;;;13.52;10.45;;;19.70;48.40;;;;;;5052147;28;20202;-69
2022/05/02 01:02:00;;;;;;;11.57;10.07;;;19.80;48.50;;;;;;5052264;28;20269;-69
2022/05/02 01:04:28;;;;;;;11.57;10.02;;;19.70;49.00;;;;;;5052254;28;20199;-69
2022/05/02 01:07:11;;;;;;;11.98;10.35;;;19.70;48.40;;;;;;5052160;28;20203;-69
2022/05/02 01:09:41;;;;;;;11.07;9.63;;;19.70;48.50;;;;;;5052322;28;20188;-69
2022/05/02 01:12:10;;;;;;;11.52;9.88;;;19.70;48.50;;;;;;5052183;28;20631;-69
2022/05/02 01:14:38;;;;;;;11.15;9.85;;;19.70;48.40;;;;;;5053581;28;20211;-69
2022/05/02 01:17:05;;;;;;;10.25;9.25;;;19.60;48.30;;;;;;5052052;28;20227;-69
2022/05/02 01:19:34;;;;;;;11.60;10.40;;;19.70;48.50;;;;;;5053514;28;20245;-69
2022/05/02 01:22:03;;;;;;;11.05;9.52;;;19.60;48.40;;;;;;5052140;28;20638;-69
2022/05/02 01:24:35;;;;;;;10.75;9.63;;;19.70;48.50;;;;;;5052044;28;20294;-69
2022/05/02 01:27:01;;;;;;;11.07;9.88;;;19.70;48.50;;;;;;5052089;28;20216;-69
2022/05/02 01:29:29;;;;;;;10.32;9.15;;;19.70;48.60;;;;;;5052039;28;20195;-69
2022/05/02 01:31:56;;;;;;;10.32;9.32;;;19.60;48.50;;;;;;5051946;28;20206;-68
2022/05/02 01:34:23;;;;;;;10.75;9.65;;;19.70;48.50;;;;;;5052007;28;20200;-68
2022/05/02 01:36:50;;;;;;;10.43;9.23;;;19.60;48.50;;;;;;5053308;28;20192;-69
2022/05/02 01:39:18;;;;;;;10.15;9.15;;;19.60;49.10;;;;;;5051762;28;20743;-69
2022/05/02 01:41:46;;;;;;;10.63;9.25;;;19.60;48.50;;;;;;5051961;28;20207;-69
2022/05/02 01:44:12;;;;;;;10.63;9.50;;;19.60;48.60;;;;;;5053082;28;20218;-69
2022/05/02 01:46:39;;;;;;;9.43;8.52;;;19.60;48.60;;;;;;5053159;28;20196;-70
2022/05/02 01:49:08;;;;;;;10.77;9.38;;;19.60;48.50;;;;;;5051994;28;20199;-69
2022/05/02 01:51:35;;;;;;;9.73;8.73;;;19.60;48.70;;;;;;5052101;28;20206;-68
2022/05/02 01:54:02;;;;;;;10.35;9.32;;;19.50;48.70;;;;;;5051979;28;20198;-69
2022/05/02 01:56:31;;;;;;;9.75;8.75;;;19.50;48.60;;;;;;5053088;28;20270;-69
2022/05/02 01:58:58;;;;;;;10.15;9.07;;;19.50;48.60;;;;;;5051636;28;20600;-69
2022/05/02 02:01:25;;;;;;;10.43;8.80;;;19.50;48.60;;;;;;5054302;28;20196;-68
2022/05/02 02:03:52;;;;;;;9.98;9.07;;;19.50;48.60;;;;;;5057054;28;20290;-69
2022/05/02 02:06:18;;;;;;;11.05;8.85;;;19.50;48.70;;;;;;5055614;28;20199;-69
2022/05/02 02:08:45;;;;;;;10.75;8.95;;;19.50;48.60;;;;;;5055409;28;20211;-69
2022/05/02 02:11:12;;;;;;;10.40;8.68;;;19.50;48.70;;;;;;5056457;28;20260;-69
2022/05/02 02:13:41;;;;;;;8.77;7.95;;;19.40;48.60;;;;;;5055595;28;20198;-69
2022/05/02 02:16:10;;;;;;;9.48;8.50;;;19.50;48.70;;;;;;5056851;28;20190;-68
2022/05/02 02:18:38;;;;;;;8.80;8.00;;;19.40;48.70;;;;;;5055181;28;20225;-69
2022/05/02 02:21:06;;;;;;;9.48;8.25;;;19.50;48.70;;;;;;5055167;28;20257;-69
2022/05/02 02:23:33;;;;;;;9.23;8.32;;;19.40;48.70;;;;;;5055197;28;20223;-69
2022/05/02 02:26:00;;;;;;;9.07;8.27;;;19.40;48.70;;;;;;5055106;28;20204;-69
2022/05/02 02:28:26;;;;;;;9.02;8.18;;;19.40;48.80;;;;;;5055349;28;20226;-68
2022/05/02 02:30:55;;;;;;;9.43;8.43;;;19.40;48.80;;;;;;5055505;28;20203;-69
2022/05/02 02:33:22;;;;;;;9.18;8.27;;;19.40;48.80;;;;;;5055096;28;20195;-69
2022/05/02 02:35:49;;;;;;;10.20;9.10;;;19.40;48.80;;;;;;5055083;28;20334;-69
2022/05/02 02:38:16;;;;;;;8.80;8.00;;;19.30;48.80;;;;;;5055191;28;20220;-69
2022/05/02 02:40:43;;;;;;;8.90;8.10;;;19.30;48.80;;;;;;5056142;28;20188;-69
2022/05/02 02:43:11;;;;;;;9.63;8.48;;;19.40;48.90;;;;;;5054732;28;20237;-69
2022/05/02 02:45:38;;;;;;;9.20;8.30;;;19.30;49.00;;;;;;5054788;28;20640;-69
2022/05/02 02:48:07;;;;;;;9.65;8.30;;;19.30;48.90;;;;;;5054686;28;20231;-69
2022/05/02 02:50:34;;;;;;;9.52;8.52;;;19.30;48.80;;;;;;5054717;28;20192;-69
2022/05/02 02:53:01;;;;;;;9.27;8.38;;;19.30;48.80;;;;;;5054518;28;20640;-69
2022/05/02 02:55:28;;;;;;;9.98;8.50;;;19.40;48.80;;;;;;5054680;28;20278;-68
2022/05/02 02:57:55;;;;;;;8.98;8.18;;;19.30;48.70;;;;;;5055828;28;20298;-69
2022/05/02 03:00:22;;;;;;;8.40;7.50;;;19.40;48.70;;;;;;5054477;28;20668;-69
2022/05/02 03:02:50;;;;;;;9.73;7.90;;;19.30;48.70;;;;;;5054824;28;20215;-69
2022/05/02 03:08:03;;;;;;;8.70;8.00;;;19.30;48.80;;;;;;5054583;28;20226;-69
2022/05/02 03:10:30;;;;;;;9.23;8.02;;;19.30;48.80;;;;;;5054341;28;20196;-69
2022/05/02 03:12:57;;;;;;;9.32;8.43;;;19.30;48.70;;;;;;5053908;28;20679;-69
2022/05/02 03:15:25;;;;;;;8.85;7.95;;;19.30;48.70;;;;;;5054326;28;20207;-68
2022/05/02 03:17:52;;;;;;;8.52;7.80;;;19.30;48.70;;;;;;5055368;28;20218;-69
2022/05/02 03:20:21;;;;;;;8.55;7.65;;;19.30;48.80;;;;;;5054093;28;20222;-69
2022/05/02 03:22:49;;;;;;;9.02;8.10;;;19.30;48.80;;;;;;5054151;28;20281;-69
2022/05/02 03:25:16;;;;;;;8.90;8.00;;;19.30;48.80;;;;;;5054175;28;20199;-69
2022/05/02 03:27:43;;;;;;;7.95;7.22;;;19.40;48.80;;;;;;5053989;28;20257;-69
2022/05/02 03:30:11;;;;;;;8.13;7.35;;;19.30;48.70;;;;;;5055169;28;20648;-69
2022/05/02 03:32:38;;;;;;;8.45;7.65;;;19.30;48.70;;;;;;5053896;28;20656;-68
2022/05/02 03:35:06;;;;;;;7.90;7.18;;;19.40;48.80;;;;;;5053905;28;20579;-69
2022/05/02 03:37:35;;;;;;;8.00;7.20;;;19.40;48.80;;;;;;5053862;28;20223;-69
2022/05/02 03:40:02;;;;;;;8.82;8.02;;;19.40;48.70;;;;;;5054974;28;20207;-69
2022/05/02 03:42:29;;;;;;;8.05;7.25;;;19.40;48.80;;;;;;5054110;28;20227;-69
2022/05/02 03:44:56;;;;;;;7.97;7.18;;;19.40;48.70;;;;;;5053702;28;20204;-69
2022/05/02 03:47:23;;;;;;;7.90;7.15;;;19.40;48.70;;;;;;5053626;28;20733;-69
2022/05/02 03:49:51;;;;;;;7.35;6.68;;;19.50;48.70;;;;;;5053625;28;20664;-69
2022/05/02 03:52:18;;;;;;;8.38;7.57;;;19.50;48.70;;;;;;5053634;28;20207;-69
2022/05/02 03:54:46;;;;;;;8.48;7.78;;;19.40;48.60;;;;;;5054818;28;20219;-68
2022/05/02 03:57:13;;;;;;;8.27;7.53;;;19.50;48.40;;;;;;5053234;28;20226;-69
2022/05/02 03:59:40;;;;;;;7.75;7.03;;;19.50;48.40;;;;;;5053425;28;20196;-70
2022/05/02 04:02:07;;;;;;;8.45;7.65;;;19.50;48.40;;;;;;5054806;28;20202;-69
2022/05/02 04:04:35;;;;;;;8.07;7.32;;;19.50;48.50;;;;;;5053223;28;20571;-69
2022/05/02 04:07:02;;;;;;;8.32;7.53;;;19.40;48.20;;;;;;5053212;28;20221;-68
2022/05/02 04:09:28;;;;;;;8.13;7.32;;;19.50;48.30;;;;;;5053459;28;20256;-68
2022/05/02 04:11:57;;;;;;;8.43;7.50;;;19.50;48.30;;;;;;5053161;28;20199;-69
2022/05/02 04:14:24;;;;;;;7.55;6.80;;;19.50;48.40;;;;;;5054299;28;20198;-72
2022/05/02 04:19:26;;;;;;;8.93;8.13;;;19.60;48.40;;;;;;5033588;28;20211;-72
2022/05/02 04:21:53;;;;;;;8.43;7.63;;;19.50;48.90;;;;;;5034837;28;20188;-72
2022/05/02 04:24:20;;;;;;;8.27;7.47;;;19.50;49.60;;;;;;5041318;28;20275;-72
2022/05/02 04:26:47;;;;;;;7.82;7.05;;;19.60;50.00;;;;;;5063588;22;20239;-61
2022/05/02 04:29:16;;;;;;;8.05;7.10;;;19.60;49.50;;;;;;5054144;28;20286;-60
2022/05/02 04:31:43;;;;;;;9.23;6.82;;;19.60;49.80;;;;;;5052905;28;20207;-61
2022/05/02 04:34:10;;;;;;;7.95;7.20;;;19.60;49.90;;;;;;5054043;28;20245;-61
2022/05/02 04:36:37;;;;;;;8.18;6.55;;;19.60;49.70;;;;;;5101158;22;20679;-68
2022/05/02 04:39:04;;;;;;;7.93;7.13;;;19.70;49.70;;;;;;5052526;28;20227;-69
2022/05/02 04:41:31;;;;;;;7.95;7.13;;;19.70;49.90;;;;;;5119981;22;20243;-73
2022/05/02 04:43:58;;;;;;;8.48;6.93;;;19.70;49.50;;;;;;5052821;28;20216;-73
2022/05/02 04:46:27;;;;;;;7.63;6.93;;;19.80;49.80;;;;;;5052336;28;20589;-73
2022/05/02 04:48:54;;;;;;;7.97;7.28;;;19.80;49.80;;;;;;5052253;28;20656;-73
2022/05/02 04:51:21;;;;;;;7.65;6.88;;;19.80;50.00;;;;;;5052458;28;20302;-73
2022/05/02 04:53:48;;;;;;;7.60;6.90;;;19.80;50.00;;;;;;5052396;28;20234;-73
2022/05/02 04:56:14;;;;;;;7.80;7.03;;;19.90;50.00;;;;;;5159061;22;20246;-72
2022/05/02 04:58:41;;;;;;;7.82;7.03;;;19.90;49.20;;;;;;5053913;28;20202;-72
2022/05/02 05:01:08;;;;;;;6.53;6.03;;;19.90;48.80;;;;;;5052348;28;20203;-72
2022/05/02 05:03:37;;;;;;;7.10;6.40;;;20.00;48.70;;;;;;5195809;22;20223;-72
2022/05/02 05:06:04;;;;;;;7.18;6.60;;;20.00;48.70;;;;;;5052430;28;20344;-73
2022/05/02 05:08:31;;;;;;;6.95;6.35;;;20.10;48.80;;;;;;5052240;28;20286;-72
2022/05/02 05:11:06;;;;;;;6.90;6.30;;;20.30;48.80;;;;;;5052166;28;20226;-73
2022/05/02 05:13:39;;;;;;;7.38;6.70;;;20.30;48.50;;;;;;5052360;28;20190;-72
2022/05/02 05:16:20;;;;;;;6.82;6.22;;;20.50;48.20;;;;;;5052400;28;20226;-72
2022/05/02 05:18:57;;;;;;;7.00;6.40;;;20.60;47.60;;;;;;5052634;28;20191;-72
2022/05/02 05:21:29;;;;;;;7.40;6.70;;;20.80;47.40;;;;;;5052245;28;20183;-72
2022/05/02 05:24:02;;;;;;;7.03;6.22;;;20.90;46.80;;;;;;5052100;28;20684;-72
2022/05/02 05:26:39;;;;;;;7.40;6.72;;;21.10;46.70;;;;;;5053489;28;20211;-72
2022/05/02 05:29:13;;;;;;;6.80;6.18;;;21.20;46.30;;;;;;5052462;28;20199;-72
2022/05/02 05:31:49;;;;;;;7.47;6.45;;;21.30;46.00;;;;;;5052238;28;20206;-72
2022/05/02 05:34:21;;;;;;;7.07;6.47;;;21.40;45.80;;;;;;5053309;28;20187;-72
2022/05/02 05:37:04;;;;;;;7.38;6.68;;;21.50;45.50;;;;;;5056410;28;20726;-72
2022/05/02 05:39:34;;;;;;;7.18;6.57;;;21.60;45.30;;;;;;5056464;28;20207;-72
2022/05/02 05:42:08;;;;;;;7.20;6.50;;;21.70;45.20;;;;;;5056256;28;20217;-73
2022/05/02 05:44:41;;;;;;;7.45;6.72;;;21.80;45.00;;;;;;5056175;28;20223;-73
2022/05/02 05:47:23;;;;;;;7.32;6.75;;;21.90;44.80;;;;;;5056414;28;20219;-73
2022/05/02 05:49:59;;;;;;;7.20;6.55;;;22.00;44.60;;;;;;5070969;22;20751;-60
2022/05/02 05:52:31;;;;;;;7.43;6.82;;;22.10;44.40;;;;;;5056079;28;20210;-60
2022/05/02 05:55:03;;;;;;;7.50;6.88;;;22.20;44.20;;;;;;5057254;28;20183;-60
2022/05/02 05:57:36;;;;;;;7.47;6.78;;;22.30;43.90;;;;;;5055950;28;20689;-60
2022/05/02 06:00:07;;;;;;;7.53;6.82;;;22.40;43.70;;;;;;5056280;28;20651;-61
2022/05/02 06:02:46;;;;;;;6.65;6.05;;;22.50;43.60;;;;;;5057417;28;20176;-60
2022/05/02 06:05:15;;;;;;;6.95;6.35;;;22.60;43.50;;;;;;5057532;28;20194;-61
2022/05/02 06:07:42;;;;;;;7.45;6.85;;;22.70;43.40;;;;;;5056030;28;20219;-60
2022/05/02 06:10:10;;;;;;;7.63;6.95;;;22.80;43.30;;;;;;5057245;28;20350;-60
2022/05/02 06:12:38;;;;;;;7.40;6.82;;;22.90;43.20;;;;;;5055565;28;20210;-58
2022/05/02 06:20:39;;;;;;;7.40;6.80;;;23.10;42.50;;;;;;5056953;28;20232;-58
2022/05/02 06:23:08;;;;;;;7.35;6.75;;;23.20;42.40;;;;;;5057646;28;20603;-58
2022/05/02 06:25:35;;;;;;;7.40;6.80;;;23.30;42.40;;;;;;5055318;28;20709;-58
2022/05/02 06:28:02;;;;;;;7.55;6.95;;;23.40;42.10;;;;;;5059140;28;20253;-59
2022/05/02 06:30:29;;;;;;;6.90;6.30;;;23.40;41.80;;;;;;5056905;28;20736;-59
2022/05/02 06:32:57;;;;;;;6.72;6.13;;;23.50;41.70;;;;;;5056328;28;20188;-59
2022/05/02 06:35:25;;;;;;;6.85;6.25;;;23.60;41.60;;;;;;5055128;28;20188;-58
2022/05/02 06:37:56;;;;;;;6.68;6.07;;;23.60;41.30;;;;;;5054962;28;20650;-58
2022/05/02 06:40:28;;;;;;;7.07;6.43;;;23.80;41.20;;;;;;5056573;28;20168;-58
2022/05/02 06:43:04;;;;;;;5.75;5.35;;;23.90;41.10;;;;;;5054985;28;20199;-58
2022/05/02 06:45:33;;;;;;;6.75;6.15;;;24.00;41.00;;;;;;5057119;28;20226;-58
2022/05/02 06:48:29;;;;;;;6.18;5.68;;;24.00;40.70;;;;;;5054286;28;20219;-58
2022/05/02 06:51:00;;;;;;;6.32;5.82;;;24.10;40.70;;;;;;5055688;28;20203;-58
2022/05/02 06:54:01;;;;;;;5.93;5.43;;;24.20;40.50;;;;;;5055880;28;20168;-58
2022/05/02 06:56:33;;;;;;;6.07;5.57;;;24.30;40.30;;;;;;5055793;28;20310;-58
2022/05/02 06:59:03;;;;;;;5.93;5.43;;;24.30;40.10;;;;;;5055641;28;20226;-58
2022/05/02 07:01:36;;;;;;;5.57;5.07;;;24.40;40.10;;;;;;5054241;28;20195;-58
2022/05/02 07:04:09;;;;;;;5.97;5.45;;;24.50;39.90;;;;;;5055745;28;20650;-58
2022/05/02 07:06:57;;;;;;;5.60;5.10;;;24.60;39.80;;;;;;5055676;28;20179;-58
2022/05/02 07:09:27;;;;;;;5.82;5.32;;;24.60;39.60;;;;;;5055321;28;20217;-58
2022/05/02 07:12:01;;;;;;;5.38;4.93;;;24.70;39.40;;;;;;5055266;28;20191;-59
2022/05/02 07:14:32;;;;;;;5.43;4.93;;;24.80;39.30;;;;;;5053870;28;20204;-58
2022/05/02 07:17:02;;;;;;;5.03;4.63;;;24.80;39.20;;;;;;5053945;28;20221;-58
2022/05/02 07:19:59;;;;;;;5.95;5.35;;;24.90;39.00;;;;;;5055315;28;20249;-59
2022/05/02 07:22:30;;;;;;;5.30;4.90;;;24.90;39.00;;;;;;5055080;28;20194;-59
2022/05/02 07:25:02;;;;;;;4.80;4.50;;;25.00;38.80;;;;;;5053723;28;20212;-59
2022/05/02 07:27:56;;;;;;;4.80;4.40;;;25.10;38.70;;;;;;5053784;28;20192;-59
2022/05/02 07:30:24;;;;;;;5.35;4.90;;;25.10;39.20;;;;;;5050244;28;20674;-59
2022/05/02 07:32:53;;;;;;;5.20;4.78;;;25.20;38.50;;;;;;5053656;28;20219;-59
2022/05/02 07:35:21;;;;;;;5.45;5.03;;;25.20;38.30;;;;;;5055120;28;20675;-59
2022/05/02 07:37:48;;;;;;;5.25;4.80;;;25.30;38.30;;;;;;5054742;28;20207;-59
2022/05/02 07:40:19;;;;;;;5.38;4.90;;;25.30;38.10;;;;;;5054804;28;20275;-59
2022/05/02 07:42:48;;;;;;;5.20;4.80;;;25.40;38.00;;;;;;5054748;28;20635;-59
2022/05/02 07:45:17;;;;;;;4.72;4.32;;;25.40;37.90;;;;;;5054897;28;20214;-59
2022/05/02 07:47:45;;;;;;;5.05;4.65;;;25.50;37.80;;;;;;5054618;28;20207;-58
2022/05/02 07:50:12;;;;;;;5.07;4.68;;;25.50;37.80;;;;;;5053111;28;20207;-59
2022/05/02 07:52:40;;;;;;;4.93;4.53;;;25.60;37.70;;;;;;5054509;28;20191;-59
2022/05/02 07:55:09;;;;;;;5.22;4.82;;;25.60;37.50;;;;;;5054443;28;20226;-59
2022/05/02 07:57:38;;;;;;;5.43;5.00;;;25.60;37.40;;;;;;5053635;28;20188;-59
2022/05/02 08:00:08;;;;;;;5.28;4.88;;;25.70;37.30;;;;;;5052655;28;20203;-59
2022/05/02 08:02:42;;;;;;;4.95;4.55;;;25.80;37.40;;;;;;5053073;28;20666;-59
2022/05/02 08:05:09;;;;;;;5.13;4.63;;;25.80;37.40;;;;;;5054290;28;20234;-59
2022/05/02 08:07:37;;;;;;;4.80;4.40;;;25.80;37.40;;;;;;5052912;28;20219;-59
2022/05/02 08:10:19;;;;;;;4.82;4.43;;;25.80;37.20;;;;;;5054275;28;20301;-59
2022/05/02 08:12:53;;;;;;;4.50;4.13;;;25.80;37.20;;;;;;5052954;28;20195;-59
2022/05/02 08:15:25;;;;;;;5.10;4.70;;;25.80;37.70;;;;;;5054384;28;20171;-59
2022/05/02 08:18:05;;;;;;;4.70;4.40;;;25.90;37.10;;;;;;5052843;28;20223;-59
2022/05/02 08:20:37;;;;;;;4.63;4.32;;;26.00;37.60;;;;;;5054377;28;20623;-59
2022/05/02 08:28:53;;;;;;;4.85;4.45;;;26.10;36.70;;;;;;5054491;28;20207;-59
2022/05/02 08:31:26;;;;;;;5.00;4.60;;;26.10;37.30;;;;;;5054119;28;20176;-59
2022/05/02 08:33:56;;;;;;;4.82;4.47;;;26.20;36.70;;;;;;5054233;28;20202;-59
2022/05/02 08:36:28;;;;;;;4.40;4.10;;;26.20;36.60;;;;;;5054008;28;20716;-59
2022/05/02 08:38:56;;;;;;;4.82;4.43;;;26.20;36.40;;;;;;5053931;28;20269;-59
2022/05/02 08:42:14;;;;;;;4.38;4.07;;;26.30;36.40;;;;;;5054067;28;20199;-59
2022/05/02 08:45:05;;;;;;;4.43;4.13;;;26.30;36.30;;;;;;5038811;28;20321;-59
2022/05/02 08:48:14;;;;;;;4.97;4.63;;;26.40;36.20;;;;;;5052889;28;20195;-59
2022/05/02 08:51:05;;;;;;;4.43;4.03;;;26.40;36.20;;;;;;5045981;28;20307;-59
2022/05/02 08:54:07;;;;;;;4.50;4.20;;;26.40;36.00;;;;;;5053901;28;20230;-59
2022/05/02 08:56:47;;;;;;;5.00;4.53;;;26.50;36.10;;;;;;5054257;28;20702;-60
2022/05/02 08:59:54;;;;;;;4.60;4.20;;;26.50;36.20;;;;;;5055107;28;20211;-59
2022/05/02 09:02:52;;;;;;;4.35;4.05;;;26.50;36.00;;;;;;5052879;28;20206;-59
2022/05/02 09:05:39;;;;;;;4.22;3.92;;;26.40;36.00;;;;;;5028380;28;20251;-59
2022/05/02 09:08:32;;;;;;;4.50;4.20;;;26.30;36.30;;;;;;5053925;28;20213;-59
2022/05/02 09:11:31;;;;;;;4.50;4.20;;;26.20;36.70;;;;;;5053486;28;20194;-59
2022/05/02 09:14:38;;;;;;;4.55;4.18;;;26.10;36.60;;;;;;5053441;28;20233;-59
2022/05/02 09:17:37;;;;;;;4.90;4.50;;;26.10;36.60;;;;;;5054010;28;20250;-59
2022/05/02 09:20:13;;;;;;;4.40;4.10;;;26.10;36.60;;;;;;5053742;28;20711;-59
2022/05/02 09:23:45;;;;;;;4.63;4.25;;;26.00;36.70;;;;;;5060078;28;20233;-59
2022/05/02 09:27:10;;;;;;;4.35;4.05;;;26.00;36.70;;;;;;4992295;28;20244;-59
2022/05/02 09:30:24;;;;;;;4.53;4.22;;;26.10;36.60;;;;;;4992213;28;20279;-60
2022/05/02 09:33:28;;;;;;;4.65;4.35;;;26.10;36.60;;;;;;5042484;28;20290;-60
2022/05/02 09:36:03;;;;;;;4.53;4.13;;;26.10;36.60;;;;;;5051749;28;20190;-59
2022/05/02 09:38:44;;;;;;;4.22;3.92;;;26.00;36.60;;;;;;5052994;28;20214;-60
2022/05/02 09:41:20;;;;;;;4.20;3.80;;;25.90;37.00;;;;;;5053223;28;20171;-59
2022/05/02 09:49:55;;;;;;;4.30;4.00;;;25.70;37.50;;;;;;5052963;28;20211;-60
2022/05/02 09:52:29;;;;;;;4.10;3.80;;;25.60;37.70;;;;;;5053188;28;20659;-59
2022/05/02 09:58:08;;;;;;;4.50;4.10;;;25.40;37.80;;;;;;5052663;28;20294;-60
2022/05/02 10:03:34;;;;;;;4.40;4.10;;;25.50;37.70;;;;;;5052867;28;20180;-59
2022/05/02 10:06:04;;;;;;;4.13;3.80;;;25.60;37.50;;;;;;5053460;28;20206;-60
2022/05/02 10:08:48;;;;;;;4.30;4.00;;;25.70;37.50;;;;;;5052711;28;20207;-60
2022/05/02 10:11:22;;;;;;;4.22;3.90;;;25.70;37.40;;;;;;5052868;28;20179;-60
2022/05/02 10:13:54;;;;;;;4.25;3.90;;;25.80;37.40;;;;;;5052841;28;20201;-60
2022/05/02 10:16:31;;;;;;;4.30;3.90;;;25.70;37.30;;;;;;5052836;28;20172;-59
2022/05/02 10:19:20;;;;;;;4.28;3.97;;;25.70;37.40;;;;;;5051321;28;20737;-60
2022/05/02 10:21:55;;;;;;;3.83;3.55;;;25.70;37.40;;;;;;5040276;28;20195;-59
2022/05/02 10:24:36;;;;;;;3.72;3.50;;;25.70;37.30;;;;;;5056308;28;20180;-60
2022/05/02 10:27:08;;;;;;;4.28;3.97;;;25.70;37.30;;;;;;5055953;28;20552;-60
2022/05/02 10:29:47;;;;;;;3.90;3.60;;;25.70;37.30;;;;;;5056255;28;20227;-59
2022/05/02 10:32:22;;;;;;;4.15;3.85;;;25.60;37.40;;;;;;5056273;28;20182;-59
2022/05/02 10:34:52;;;;;;;3.67;3.42;;;25.60;37.50;;;;;;5055673;28;20187;-60
2022/05/02 10:37:21;;;;;;;3.63;3.40;;;25.60;37.70;;;;;;5094781;22;20761;-69
2022/05/02 10:39:51;;;;;;;4.22;3.92;;;25.40;37.80;;;;;;5054958;28;20192;-68
2022/05/02 10:42:18;;;;;;;3.92;3.63;;;25.40;37.80;;;;;;5054906;28;20275;-68
2022/05/02 10:44:51;;;;;;;4.20;3.90;;;25.40;37.90;;;;;;5054949;28;20188;-68
2022/05/02 10:47:20;;;;;;;4.03;3.72;;;25.40;38.60;;;;;;5055134;28;20708;-69
2022/05/02 10:50:05;;;;;;;4.00;3.70;;;25.40;37.90;;;;;;5056691;28;20644;-69
2022/05/02 10:53:07;;;;;;;3.78;3.47;;;25.40;37.90;;;;;;5056851;28;20269;-69
2022/05/02 10:55:39;;;;;;;3.90;3.60;;;25.40;37.80;;;;;;5054804;28;20682;-69
2022/05/02 10:58:09;;;;;;;3.90;3.60;;;25.40;37.80;;;;;;5054820;28;20253;-69
2022/05/02 11:00:44;;;;;;;3.80;3.50;;;25.40;37.80;;;;;;5054584;28;20195;-69
2022/05/02 11:03:25;;;;;;;3.88;3.58;;;25.40;37.90;;;;;;5054785;28;20195;-69
2022/05/02 11:05:56;;;;;;;3.78;3.53;;;25.30;38.00;;;;;;5055780;28;20199;-69
2022/05/02 11:08:29;;;;;;;3.75;3.55;;;25.30;38.00;;;;;;5054093;28;20625;-69
2022/05/02 11:10:59;;;;;;;4.10;3.80;;;25.30;38.00;;;;;;5054550;28;20253;-68
2022/05/02 11:13:29;;;;;;;3.97;3.67;;;25.30;38.00;;;;;;5054329;28;20199;-68
2022/05/02 11:16:05;;;;;;;3.72;3.42;;;25.30;38.10;;;;;;5054306;28;20196;-69
2022/05/02 11:21:50;;;;;;;3.85;3.60;;;25.30;38.20;;;;;;5054014;28;20195;-69
2022/05/02 11:24:32;;;;;;;3.90;3.60;;;25.30;38.20;;;;;;5053988;28;20278;-67
2022/05/02 11:27:05;;;;;;;3.67;3.45;;;25.20;38.20;;;;;;5054009;28;20261;-69
2022/05/02 11:29:36;;;;;;;3.72;3.50;;;25.20;38.30;;;;;;5055377;28;20182;-69
2022/05/02 11:32:04;;;;;;;4.03;3.72;;;25.10;38.30;;;;;;5053653;28;20192;-69
2022/05/02 11:34:38;;;;;;;3.78;3.47;;;25.10;38.40;;;;;;5054126;28;20200;-70
2022/05/02 11:37:06;;;;;;;3.60;3.40;;;25.10;38.40;;;;;;5054048;28;20219;-69
2022/05/02 11:39:37;;;;;;;4.07;3.78;;;25.10;38.50;;;;;;5054059;28;20207;-69
2022/05/02 11:42:09;;;;;;;3.33;3.13;;;25.10;38.60;;;;;;5055586;28;20254;-69
2022/05/02 11:44:47;;;;;;;3.65;3.40;;;25.00;38.50;;;;;;5053859;28;20257;-69
2022/05/02 11:47:19;;;;;;;3.28;3.08;;;25.00;38.60;;;;;;5053964;28;20632;-68
2022/05/02 11:49:53;;;;;;;3.75;3.45;;;25.00;38.60;;;;;;5053665;28;20567;-68
2022/05/02 11:52:30;;;;;;;3.78;3.50;;;25.00;38.60;;;;;;5053538;28;20244;-69
2022/05/02 11:54:58;;;;;;;3.35;3.15;;;25.00;38.70;;;;;;5053550;28;20199;-69
2022/05/02 11:57:29;;;;;;;3.72;3.53;;;25.00;38.70;;;;;;5053613;28;20219;-68
2022/05/02 12:00:00;;;;;;;3.42;3.22;;;24.90;38.70;;;;;;5053645;28;20386;-69
2022/05/02 12:02:51;;;;;;;3.38;3.17;;;24.90;38.70;;;;;;5054831;28;20227;-69
2022/05/02 12:05:27;;;;;;;3.80;3.50;;;24.90;38.80;;;;;;5049064;28;20230;-69
2022/05/02 12:07:55;;;;;;;3.63;3.42;;;24.90;38.80;;;;;;5053035;28;20703;-69
2022/05/02 12:10:32;;;;;;;4.00;3.60;;;24.90;38.90;;;;;;5054275;28;20183;-69
2022/05/02 12:13:00;;;;;;;3.80;3.50;;;24.90;38.90;;;;;;5053018;28;20194;-68
2022/05/02 12:15:28;;;;;;;3.70;3.47;;;24.80;38.80;;;;;;5053254;28;20211;-68
2022/05/02 12:17:55;;;;;;;3.75;3.45;;;24.80;38.80;;;;;;5053220;28;20692;-69
2022/05/02 12:20:24;;;;;;;3.35;3.15;;;24.90;39.00;;;;;;5054220;28;20192;-69
2022/05/02 12:22:55;;;;;;;3.50;3.30;;;24.90;39.00;;;;;;5052915;28;20208;-69
2022/05/02 12:25:23;;;;;;;3.40;3.20;;;24.90;39.10;;;;;;5053620;28;20222;-71
2022/05/02 12:27:51;;;;;;;4.10;3.78;;;24.80;39.00;;;;;;5053077;28;20226;-68
2022/05/02 12:30:19;;;;;;;3.45;3.25;;;24.80;39.10;;;;;;5054439;28;20218;-69
2022/05/02 12:32:46;;;;;;;3.80;3.50;;;24.80;39.10;;;;;;5054894;28;20245;-68
2022/05/02 12:35:14;;;;;;;3.67;3.40;;;24.70;39.10;;;;;;5056218;28;20290;-69
2022/05/02 12:37:42;;;;;;;3.63;3.33;;;24.70;39.10;;;;;;5056069;28;20258;-69
2022/05/02 12:40:13;;;;;;;3.60;3.30;;;24.70;39.20;;;;;;5053619;28;20228;-69
2022/05/02 12:42:44;;;;;;;3.28;3.08;;;24.70;39.20;;;;;;5055312;28;20184;-69
2022/05/02 12:45:13;;;;;;;3.65;3.35;;;24.70;39.20;;;;;;5052485;28;20203;-69
2022/05/02 12:47:43;;;;;;;3.55;3.35;;;24.70;39.20;;;;;;5053241;28;20596;-69
2022/05/02 12:50:13;;;;;;;3.80;3.50;;;24.70;39.20;;;;;;5053626;28;20587;-69
2022/05/02 12:52:44;;;;;;;3.20;3.00;;;24.70;39.20;;;;;;5052869;28;20191;-69
2022/05/02 12:55:11;;;;;;;3.50;3.25;;;24.70;39.20;;;;;;5053739;28;20179;-69
2022/05/02 13:00:35;;;;;;;3.60;3.30;;;24.70;39.30;;;;;;5052565;28;20187;-69
2022/05/02 13:03:15;;;;;;;3.40;3.20;;;24.70;39.30;;;;;;5052647;28;20237;-70
2022/05/02 13:05:54;;;;;;;4.05;3.75;;;24.60;39.30;;;;;;5053619;28;20541;-69
2022/05/02 13:08:33;;;;;;;3.58;3.38;;;24.60;39.30;;;;;;5052167;28;20718;-69
2022/05/02 13:11:05;;;;;;;3.92;3.63;;;24.60;39.40;;;;;;5052378;28;20571;-69
2022/05/02 13:13:38;;;;;;;3.42;3.22;;;24.60;39.50;;;;;;5052445;28;20199;-70
2022/05/02 13:16:15;;;;;;;3.72;3.42;;;24.60;39.40;;;;;;5052207;28;20188;-69
2022/05/02 13:18:47;;;;;;;3.58;3.28;;;24.60;39.50;;;;;;5053892;28;20624;-69
2022/05/02 13:21:14;;;;;;;3.40;3.20;;;24.60;39.40;;;;;;5052380;28;20203;-69
2022/05/02 13:23:43;;;;;;;3.40;3.20;;;24.60;39.40;;;;;;5052421;28;20192;-69
2022/05/02 13:26:39;;;;;;;3.20;3.00;;;24.70;39.40;;;;;;5052738;28;20273;-70
2022/05/02 13:29:09;;;;;;;3.30;3.10;;;24.70;39.50;;;;;;5052826;28;20617;-69
2022/05/02 13:31:47;;;;;;;3.42;3.22;;;24.60;39.40;;;;;;5051985;28;20676;-71
2022/05/02 13:34:22;;;;;;;3.25;3.05;;;24.60;39.50;;;;;;5052095;28;20278;-69
2022/05/02 13:36:49;;;;;;;3.58;3.38;;;24.60;39.40;;;;;;5051646;28;20218;-70
2022/05/02 13:39:20;;;;;;;3.47;3.28;;;24.60;39.50;;;;;;5053742;28;20180;-69
2022/05/02 13:41:49;;;;;;;3.50;3.30;;;24.60;39.50;;;;;;5052036;28;20252;-70
2022/05/02 13:44:23;;;;;;;3.10;2.90;;;24.60;39.50;;;;;;5051794;28;20257;-69
2022/05/02 13:46:54;;;;;;;3.45;3.25;;;24.50;39.50;;;;;;5051717;28;20231;-68
2022/05/02 13:49:35;;;;;;;3.28;3.08;;;24.60;39.60;;;;;;5053282;28;20262;-69